Detall de PIREP

Printer-friendly versionPDF version

[2011/02/04 00:07:00]
Flight IATA:CT3102
Pilot Number:026
Company ICAO:CAT
Aircraft Type:DC85/A
PAX:132
Departing Airport: LIEA
Destination Airport: LEPA
Alternate Airport:LEBL
Online: VATSIM
Route:SUPUX UZ924 RIPAL UM603 MORSS
Flight Level:F270
No Slew and time accel
No pause
Crash detect
Detect pilot in Cockpit between each 30 and 45 minutes
00:07 Zero fuel Weight: 178651 Lbs, Fuel Weight: 24014 Lbs
00:07 VATSIM:LIEA 042250Z 00000KT 9000 NSC 03/03 Q1030
00:07 VATSIM:LEPA 042300Z 06001KT CAVOK 04/04 Q1033 NOSIG
00:08 VOICE CATALONIAN / INTERHUB ROUTE CT3202
00:14 Parking Brakes off
00:22 Take-off
00:22 Take off Weight: 201628 Lbs
00:22 Wind: 303º @ 000 Knots Heading: 202º
00:22 POS N40º 37´ 27´´ E008º 17´ 10´´
00:22 Gear Up: 172 Knots
00:22 Flaps:2 at 172 Knots
00:23 Flaps:1 at 195 Knots
00:23 Flaps:0 at 179 Knots
00:37 Wind:326º@008 Knots Heading: 261º Ground Speed: 384 Knots Altitude 26394 ft
00:38 TOC
00:38 Fuel Weight: 18466 Lb
00:45 TOD
00:45 Fuel Weight: 16780 Lb
00:52 Wind:339º@015 Knots Heading: 255º Ground Speed: 382 Knots Altitude 20439 ft
01:05 Flaps:1 at 230 Knots
01:07 Wind:022º@002 Knots Heading: 253º Ground Speed: 204 Knots Altitude 3467 ft
01:08 Gear Down: 165 Knots
01:08 Flaps:2 at 145 Knots
01:09 Flaps:3 at 164 Knots
01:10 Flaps:4 at 154 Knots
01:10 Flaps:5 at 143 Knots
01:11 TouchDown:Rate -204 ft/min Speed: 123 Knots
01:11 VATSIM:LEPA 050000Z 03001KT CAVOK 03/03 Q1033 NOSIG
01:11 Land
01:11 Wind:032º@001 Knots
01:11 Heading: 238º
01:11 Flight Duration: 00:49
01:11 Landing Weight: 192662 Lbs
01:11 POS N39º 32´ 49´´ E002º 44´ 37´´
01:19 Parking brakes on
01:19 Block to Block Duration: 01:05
01:19 Final Fuel: 13417 Lbls
01:19 Spent Fuel: 10597 Lbls
01:19 Flight Length: 266 NM
01:19 TODLand Length: 133 NM

Exportar CSV

Powered by Drupal - Modified by Danger4k